sensor_id;sensor_type;location;lat;lon;timestamp;temperature;humidity
37874;DHT22;23709;48.078;11.684;2023-07-24T00:01:22;20.00;95.80
37874;DHT22;23709;48.078;11.684;2023-07-24T00:03:54;20.00;96.10
37874;DHT22;23709;48.078;11.684;2023-07-24T00:06:28;19.90;96.60
37874;DHT22;23709;48.078;11.684;2023-07-24T00:09:00;19.90;96.30
37874;DHT22;23709;48.078;11.684;2023-07-24T00:11:33;20.00;96.30
37874;DHT22;23709;48.078;11.684;2023-07-24T00:14:05;20.00;96.40
37874;DHT22;23709;48.078;11.684;2023-07-24T00:16:38;19.80;96.90
37874;DHT22;23709;48.078;11.684;2023-07-24T00:19:11;19.80;97.00
37874;DHT22;23709;48.078;11.684;2023-07-24T00:21:43;19.80;97.40
37874;DHT22;23709;48.078;11.684;2023-07-24T00:24:15;19.70;97.90
37874;DHT22;23709;48.078;11.684;2023-07-24T00:26:48;19.70;97.60
37874;DHT22;23709;48.078;11.684;2023-07-24T00:29:22;19.70;97.70
37874;DHT22;23709;48.078;11.684;2023-07-24T00:31:54;19.60;98.00
37874;DHT22;23709;48.078;11.684;2023-07-24T00:34:26;19.60;98.40
37874;DHT22;23709;48.078;11.684;2023-07-24T00:37:00;19.60;98.40
37874;DHT22;23709;48.078;11.684;2023-07-24T00:39:32;19.50;98.50
37874;DHT22;23709;48.078;11.684;2023-07-24T00:42:05;19.60;98.70
37874;DHT22;23709;48.078;11.684;2023-07-24T00:44:37;19.60;99.00
37874;DHT22;23709;48.078;11.684;2023-07-24T00:47:10;19.50;98.90
37874;DHT22;23709;48.078;11.684;2023-07-24T00:49:43;19.50;99.00
37874;DHT22;23709;48.078;11.684;2023-07-24T00:52:16;19.50;99.30
37874;DHT22;23709;48.078;11.684;2023-07-24T00:54:49;19.50;99.20
37874;DHT22;23709;48.078;11.684;2023-07-24T00:57:22;19.50;99.30
37874;DHT22;23709;48.078;11.684;2023-07-24T00:59:54;19.50;99.60
37874;DHT22;23709;48.078;11.684;2023-07-24T01:02:28;19.40;99.80
37874;DHT22;23709;48.078;11.684;2023-07-24T01:05:01;19.40;99.90
37874;DHT22;23709;48.078;11.684;2023-07-24T01:07:34;19.40;99.90
37874;DHT22;23709;48.078;11.684;2023-07-24T01:10:09;19.40;99.90
37874;DHT22;23709;48.078;11.684;2023-07-24T01:15:33;19.20;99.90
37874;DHT22;23709;48.078;11.684;2023-07-24T01:18:08;19.20;99.90
37874;DHT22;23709;48.078;11.684;2023-07-24T01:20:48;19.00;99.90
37874;DHT22;23709;48.078;11.684;2023-07-24T01:23:33;19.00;99.90
37874;DHT22;23709;48.078;11.684;2023-07-24T01:26:09;18.90;99.90
37874;DHT22;23709;48.078;11.684;2023-07-24T01:28:43;18.90;99.90
37874;DHT22;23709;48.078;11.684;2023-07-24T01:31:15;18.90;99.90
37874;DHT22;23709;48.078;11.684;2023-07-24T01:33:49;18.80;99.90
37874;DHT22;23709;48.078;11.684;2023-07-24T01:36:22;18.80;99.90
37874;DHT22;23709;48.078;11.684;2023-07-24T01:38:56;18.70;99.90
37874;DHT22;23709;48.078;11.684;2023-07-24T01:41:28;18.70;99.90
37874;DHT22;23709;48.078;11.684;2023-07-24T01:44:01;18.60;99.90
37874;DHT22;23709;48.078;11.684;2023-07-24T01:46:33;18.50;99.90
37874;DHT22;23709;48.078;11.684;2023-07-24T01:49:05;18.50;99.90
37874;DHT22;23709;48.078;11.684;2023-07-24T01:51:37;18.50;99.90
37874;DHT22;23709;48.078;11.684;2023-07-24T01:54:10;18.40;99.90
37874;DHT22;23709;48.078;11.684;2023-07-24T01:56:42;18.40;99.90
37874;DHT22;23709;48.078;11.684;2023-07-24T01:59:16;18.30;99.90
37874;DHT22;23709;48.078;11.684;2023-07-24T02:01:48;18.30;99.90
37874;DHT22;23709;48.078;11.684;2023-07-24T02:04:20;18.20;99.90
37874;DHT22;23709;48.078;11.684;2023-07-24T02:06:54;18.10;99.90
37874;DHT22;23709;48.078;11.684;2023-07-24T02:09:26;18.10;99.90
37874;DHT22;23709;48.078;11.684;2023-07-24T02:11:59;18.00;99.90
37874;DHT22;23709;48.078;11.684;2023-07-24T02:14:31;18.00;99.90
37874;DHT22;23709;48.078;11.684;2023-07-24T02:17:03;18.00;99.90
37874;DHT22;23709;48.078;11.684;2023-07-24T02:19:36;17.90;99.90
37874;DHT22;23709;48.078;11.684;2023-07-24T02:22:08;17.90;99.90
37874;DHT22;23709;48.078;11.684;2023-07-24T02:24:41;17.90;99.90
37874;DHT22;23709;48.078;11.684;2023-07-24T02:27:24;18.00;99.90
37874;DHT22;23709;48.078;11.684;2023-07-24T02:29:56;17.80;99.90
37874;DHT22;23709;48.078;11.684;2023-07-24T02:32:29;17.70;99.90
37874;DHT22;23709;48.078;11.684;2023-07-24T02:35:01;17.70;99.90
37874;DHT22;23709;48.078;11.684;2023-07-24T02:37:34;17.70;99.90
37874;DHT22;23709;48.078;11.684;2023-07-24T02:40:08;17.70;99.90
37874;DHT22;23709;48.078;11.684;2023-07-24T02:42:40;17.80;99.90
37874;DHT22;23709;48.078;11.684;2023-07-24T02:45:12;17.90;99.90
37874;DHT22;23709;48.078;11.684;2023-07-24T02:47:45;18.00;99.90
37874;DHT22;23709;48.078;11.684;2023-07-24T02:50:18;17.90;99.90
37874;DHT22;23709;48.078;11.684;2023-07-24T02:52:50;17.80;99.90
37874;DHT22;23709;48.078;11.684;2023-07-24T02:55:23;17.80;99.90
37874;DHT22;23709;48.078;11.684;2023-07-24T02:57:55;17.90;99.90
37874;DHT22;23709;48.078;11.684;2023-07-24T03:00:28;18.00;99.90
37874;DHT22;23709;48.078;11.684;2023-07-24T03:03:00;18.00;99.90
37874;DHT22;23709;48.078;11.684;2023-07-24T03:05:36;18.10;99.90
37874;DHT22;23709;48.078;11.684;2023-07-24T03:08:08;18.10;99.90
37874;DHT22;23709;48.078;11.684;2023-07-24T03:10:41;18.20;99.90
37874;DHT22;23709;48.078;11.684;2023-07-24T03:13:14;18.20;99.90
37874;DHT22;23709;48.078;11.684;2023-07-24T03:15:56;18.40;99.90
37874;DHT22;23709;48.078;11.684;2023-07-24T03:18:28;18.40;99.90
37874;DHT22;23709;48.078;11.684;2023-07-24T03:21:01;18.40;99.90
37874;DHT22;23709;48.078;11.684;2023-07-24T03:23:34;18.30;99.90
37874;DHT22;23709;48.078;11.684;2023-07-24T03:26:06;18.20;99.90
37874;DHT22;23709;48.078;11.684;2023-07-24T03:28:38;18.20;99.90
37874;DHT22;23709;48.078;11.684;2023-07-24T03:31:10;18.00;99.90
37874;DHT22;23709;48.078;11.684;2023-07-24T03:33:43;18.00;99.90
37874;DHT22;23709;48.078;11.684;2023-07-24T03:36:15;18.10;99.90
37874;DHT22;23709;48.078;11.684;2023-07-24T03:38:48;18.10;99.90
37874;DHT22;23709;48.078;11.684;2023-07-24T03:41:20;18.10;99.90
37874;DHT22;23709;48.078;11.684;2023-07-24T03:43:53;18.10;99.90
37874;DHT22;23709;48.078;11.684;2023-07-24T03:46:25;18.00;99.90
37874;DHT22;23709;48.078;11.684;2023-07-24T03:48:58;18.00;99.90
37874;DHT22;23709;48.078;11.684;2023-07-24T03:51:30;18.00;99.90
37874;DHT22;23709;48.078;11.684;2023-07-24T03:54:02;17.90;99.90
37874;DHT22;23709;48.078;11.684;2023-07-24T03:56:35;18.00;99.90
37874;DHT22;23709;48.078;11.684;2023-07-24T03:59:07;18.00;99.90
37874;DHT22;23709;48.078;11.684;2023-07-24T04:01:39;17.90;99.90
37874;DHT22;23709;48.078;11.684;2023-07-24T04:04:11;17.90;99.90
37874;DHT22;23709;48.078;11.684;2023-07-24T04:06:43;18.00;99.90
37874;DHT22;23709;48.078;11.684;2023-07-24T04:09:17;18.00;99.90
37874;DHT22;23709;48.078;11.684;2023-07-24T04:11:49;18.00;99.90
37874;DHT22;23709;48.078;11.684;2023-07-24T04:14:22;18.00;99.90
37874;DHT22;23709;48.078;11.684;2023-07-24T04:16:54;18.00;99.90
37874;DHT22;23709;48.078;11.684;2023-07-24T04:19:27;18.00;99.90
37874;DHT22;23709;48.078;11.684;2023-07-24T04:22:00;18.00;99.90
37874;DHT22;23709;48.078;11.684;2023-07-24T04:24:33;18.00;99.90
37874;DHT22;23709;48.078;11.684;2023-07-24T04:27:06;18.00;99.90
37874;DHT22;23709;48.078;11.684;2023-07-24T04:29:38;18.10;99.90
37874;DHT22;23709;48.078;11.684;2023-07-24T04:32:10;18.10;99.90
37874;DHT22;23709;48.078;11.684;2023-07-24T04:34:42;18.00;99.90
37874;DHT22;23709;48.078;11.684;2023-07-24T04:37:15;18.00;99.90
37874;DHT22;23709;48.078;11.684;2023-07-24T04:39:47;18.10;99.90
37874;DHT22;23709;48.078;11.684;2023-07-24T04:42:20;18.10;99.90
37874;DHT22;23709;48.078;11.684;2023-07-24T04:44:52;18.10;99.90
37874;DHT22;23709;48.078;11.684;2023-07-24T04:47:24;18.10;99.90
37874;DHT22;23709;48.078;11.684;2023-07-24T04:49:56;18.10;99.90
37874;DHT22;23709;48.078;11.684;2023-07-24T04:52:29;18.10;99.90
37874;DHT22;23709;48.078;11.684;2023-07-24T04:55:01;18.10;99.90
37874;DHT22;23709;48.078;11.684;2023-07-24T04:57:34;18.10;99.90
37874;DHT22;23709;48.078;11.684;2023-07-24T05:00:07;18.00;99.90
37874;DHT22;23709;48.078;11.684;2023-07-24T05:02:40;18.00;99.90
37874;DHT22;23709;48.078;11.684;2023-07-24T05:05:12;18.10;99.90
37874;DHT22;23709;48.078;11.684;2023-07-24T05:07:45;18.20;99.90
37874;DHT22;23709;48.078;11.684;2023-07-24T05:10:17;18.30;99.90
37874;DHT22;23709;48.078;11.684;2023-07-24T05:12:50;18.30;99.90
37874;DHT22;23709;48.078;11.684;2023-07-24T05:15:22;18.40;99.90
37874;DHT22;23709;48.078;11.684;2023-07-24T05:17:54;18.40;99.90
37874;DHT22;23709;48.078;11.684;2023-07-24T05:20:27;18.40;99.90
37874;DHT22;23709;48.078;11.684;2023-07-24T05:22:59;18.50;99.90
37874;DHT22;23709;48.078;11.684;2023-07-24T05:25:31;18.40;99.90
37874;DHT22;23709;48.078;11.684;2023-07-24T05:28:04;18.40;99.90
37874;DHT22;23709;48.078;11.684;2023-07-24T05:30:36;18.40;99.90
37874;DHT22;23709;48.078;11.684;2023-07-24T05:33:09;18.40;99.90
37874;DHT22;23709;48.078;11.684;2023-07-24T05:35:41;18.50;99.90
37874;DHT22;23709;48.078;11.684;2023-07-24T05:38:15;18.50;99.90
37874;DHT22;23709;48.078;11.684;2023-07-24T05:40:54;18.50;99.90
37874;DHT22;23709;48.078;11.684;2023-07-24T05:43:27;18.60;99.90
37874;DHT22;23709;48.078;11.684;2023-07-24T05:46:00;18.70;99.90
37874;DHT22;23709;48.078;11.684;2023-07-24T05:48:33;18.80;99.90
37874;DHT22;23709;48.078;11.684;2023-07-24T05:51:05;19.00;99.90
37874;DHT22;23709;48.078;11.684;2023-07-24T05:53:37;19.10;99.90
37874;DHT22;23709;48.078;11.684;2023-07-24T05:56:09;19.30;99.90
37874;DHT22;23709;48.078;11.684;2023-07-24T06:01:15;19.40;99.90
37874;DHT22;23709;48.078;11.684;2023-07-24T06:03:47;19.60;99.90
37874;DHT22;23709;48.078;11.684;2023-07-24T06:06:19;19.70;99.90
37874;DHT22;23709;48.078;11.684;2023-07-24T06:11:24;19.90;99.90
37874;DHT22;23709;48.078;11.684;2023-07-24T06:13:58;20.20;99.90
37874;DHT22;23709;48.078;11.684;2023-07-24T06:16:30;20.30;99.90
37874;DHT22;23709;48.078;11.684;2023-07-24T06:19:03;20.50;99.90
37874;DHT22;23709;48.078;11.684;2023-07-24T06:21:35;20.50;99.90
37874;DHT22;23709;48.078;11.684;2023-07-24T06:24:07;20.60;99.90
37874;DHT22;23709;48.078;11.684;2023-07-24T06:26:44;20.50;99.90
37874;DHT22;23709;48.078;11.684;2023-07-24T06:29:16;20.50;99.90
37874;DHT22;23709;48.078;11.684;2023-07-24T06:31:48;20.70;99.90
37874;DHT22;23709;48.078;11.684;2023-07-24T06:34:22;20.80;99.90
37874;DHT22;23709;48.078;11.684;2023-07-24T06:36:54;20.90;99.90
37874;DHT22;23709;48.078;11.684;2023-07-24T06:39:36;21.10;99.90
37874;DHT22;23709;48.078;11.684;2023-07-24T06:42:09;21.30;99.90
37874;DHT22;23709;48.078;11.684;2023-07-24T06:44:41;21.60;99.90
37874;DHT22;23709;48.078;11.684;2023-07-24T06:47:13;21.70;99.90
37874;DHT22;23709;48.078;11.684;2023-07-24T06:49:45;22.00;99.90
37874;DHT22;23709;48.078;11.684;2023-07-24T06:52:19;22.10;99.90
37874;DHT22;23709;48.078;11.684;2023-07-24T06:54:51;22.40;99.90
37874;DHT22;23709;48.078;11.684;2023-07-24T06:57:23;22.60;99.90
37874;DHT22;23709;48.078;11.684;2023-07-24T06:59:56;22.80;99.90
37874;DHT22;23709;48.078;11.684;2023-07-24T07:02:28;22.90;99.90
37874;DHT22;23709;48.078;11.684;2023-07-24T07:05:01;23.00;99.90
37874;DHT22;23709;48.078;11.684;2023-07-24T07:07:33;23.00;99.90
37874;DHT22;23709;48.078;11.684;2023-07-24T07:10:06;23.00;99.90
37874;DHT22;23709;48.078;11.684;2023-07-24T07:12:38;23.10;99.90
37874;DHT22;23709;48.078;11.684;2023-07-24T07:15:10;23.20;99.90
37874;DHT22;23709;48.078;11.684;2023-07-24T07:17:43;23.40;99.90
37874;DHT22;23709;48.078;11.684;2023-07-24T07:20:15;23.70;99.90
37874;DHT22;23709;48.078;11.684;2023-07-24T07:22:47;23.90;99.90
37874;DHT22;23709;48.078;11.684;2023-07-24T07:25:19;24.00;99.90
37874;DHT22;23709;48.078;11.684;2023-07-24T07:27:52;24.00;99.90
37874;DHT22;23709;48.078;11.684;2023-07-24T07:30:24;23.90;99.90
37874;DHT22;23709;48.078;11.684;2023-07-24T07:32:56;23.90;98.50
37874;DHT22;23709;48.078;11.684;2023-07-24T07:35:29;23.90;99.80
37874;DHT22;23709;48.078;11.684;2023-07-24T07:38:02;23.90;99.30
37874;DHT22;23709;48.078;11.684;2023-07-24T07:40:36;23.90;99.30
37874;DHT22;23709;48.078;11.684;2023-07-24T07:43:08;23.90;99.60
37874;DHT22;23709;48.078;11.684;2023-07-24T07:45:41;23.80;99.90
37874;DHT22;23709;48.078;11.684;2023-07-24T07:48:13;23.70;99.90
37874;DHT22;23709;48.078;11.684;2023-07-24T07:50:50;23.60;99.90
37874;DHT22;23709;48.078;11.684;2023-07-24T07:53:22;23.60;99.90
37874;DHT22;23709;48.078;11.684;2023-07-24T07:55:56;23.50;99.90
37874;DHT22;23709;48.078;11.684;2023-07-24T07:58:32;23.50;99.90
37874;DHT22;23709;48.078;11.684;2023-07-24T08:01:05;23.30;99.90
37874;DHT22;23709;48.078;11.684;2023-07-24T08:03:37;23.20;99.90
37874;DHT22;23709;48.078;11.684;2023-07-24T08:06:10;23.10;99.90
37874;DHT22;23709;48.078;11.684;2023-07-24T08:08:42;22.90;99.90
37874;DHT22;23709;48.078;11.684;2023-07-24T08:11:14;22.80;99.90
37874;DHT22;23709;48.078;11.684;2023-07-24T08:13:46;22.80;99.90
37874;DHT22;23709;48.078;11.684;2023-07-24T08:16:19;22.80;99.90
37874;DHT22;23709;48.078;11.684;2023-07-24T08:18:51;22.70;99.90
37874;DHT22;23709;48.078;11.684;2023-07-24T08:21:23;22.80;99.90
37874;DHT22;23709;48.078;11.684;2023-07-24T08:23:56;22.90;99.90
37874;DHT22;23709;48.078;11.684;2023-07-24T08:26:29;22.90;99.90
37874;DHT22;23709;48.078;11.684;2023-07-24T08:29:01;22.90;99.90
37874;DHT22;23709;48.078;11.684;2023-07-24T08:31:33;22.80;99.90
37874;DHT22;23709;48.078;11.684;2023-07-24T08:34:06;22.70;99.90
37874;DHT22;23709;48.078;11.684;2023-07-24T08:36:38;22.60;99.90
37874;DHT22;23709;48.078;11.684;2023-07-24T08:39:11;22.20;99.90
37874;DHT22;23709;48.078;11.684;2023-07-24T08:41:43;22.30;99.90
37874;DHT22;23709;48.078;11.684;2023-07-24T08:44:15;22.30;99.90
37874;DHT22;23709;48.078;11.684;2023-07-24T08:46:48;22.20;99.90
37874;DHT22;23709;48.078;11.684;2023-07-24T08:49:22;22.30;99.90
37874;DHT22;23709;48.078;11.684;2023-07-24T08:51:55;22.40;99.90
37874;DHT22;23709;48.078;11.684;2023-07-24T08:54:32;22.40;99.90
37874;DHT22;23709;48.078;11.684;2023-07-24T08:57:07;22.40;99.90
37874;DHT22;23709;48.078;11.684;2023-07-24T08:59:40;22.40;99.90
37874;DHT22;23709;48.078;11.684;2023-07-24T09:02:12;22.40;99.90
37874;DHT22;23709;48.078;11.684;2023-07-24T09:04:47;22.30;99.90
37874;DHT22;23709;48.078;11.684;2023-07-24T09:07:19;22.40;99.90
37874;DHT22;23709;48.078;11.684;2023-07-24T09:09:52;22.50;99.90
37874;DHT22;23709;48.078;11.684;2023-07-24T09:12:25;22.50;99.90
37874;DHT22;23709;48.078;11.684;2023-07-24T09:15:03;22.40;99.90
37874;DHT22;23709;48.078;11.684;2023-07-24T09:17:47;22.40;99.90
37874;DHT22;23709;48.078;11.684;2023-07-24T09:20:20;22.50;99.90
37874;DHT22;23709;48.078;11.684;2023-07-24T09:22:56;22.60;99.90
37874;DHT22;23709;48.078;11.684;2023-07-24T09:25:46;22.50;99.90
37874;DHT22;23709;48.078;11.684;2023-07-24T09:28:19;22.60;99.90
37874;DHT22;23709;48.078;11.684;2023-07-24T09:30:56;22.70;99.90
37874;DHT22;23709;48.078;11.684;2023-07-24T09:33:37;22.80;99.90
37874;DHT22;23709;48.078;11.684;2023-07-24T09:36:10;22.90;99.90
37874;DHT22;23709;48.078;11.684;2023-07-24T09:38:42;23.20;99.90
37874;DHT22;23709;48.078;11.684;2023-07-24T09:41:15;23.50;99.90
37874;DHT22;23709;48.078;11.684;2023-07-24T09:43:57;23.90;99.80
37874;DHT22;23709;48.078;11.684;2023-07-24T09:46:30;24.00;99.50
37874;DHT22;23709;48.078;11.684;2023-07-24T09:49:05;24.20;98.30
37874;DHT22;23709;48.078;11.684;2023-07-24T09:51:43;24.40;98.00
37874;DHT22;23709;48.078;11.684;2023-07-24T09:54:21;24.50;97.00
37874;DHT22;23709;48.078;11.684;2023-07-24T09:56:54;24.80;97.20
37874;DHT22;23709;48.078;11.684;2023-07-24T09:59:42;25.00;97.70
37874;DHT22;23709;48.078;11.684;2023-07-24T10:02:14;25.20;96.10
37874;DHT22;23709;48.078;11.684;2023-07-24T10:04:47;25.30;95.90
37874;DHT22;23709;48.078;11.684;2023-07-24T10:07:20;25.40;94.20
37874;DHT22;23709;48.078;11.684;2023-07-24T10:09:55;25.50;93.50
37874;DHT22;23709;48.078;11.684;2023-07-24T10:12:29;25.70;92.50
37874;DHT22;23709;48.078;11.684;2023-07-24T10:15:04;25.90;93.00
37874;DHT22;23709;48.078;11.684;2023-07-24T10:17:40;26.20;92.30
37874;DHT22;23709;48.078;11.684;2023-07-24T10:20:16;26.30;91.60
37874;DHT22;23709;48.078;11.684;2023-07-24T10:22:50;26.40;91.70
37874;DHT22;23709;48.078;11.684;2023-07-24T10:25:29;26.70;91.30
37874;DHT22;23709;48.078;11.684;2023-07-24T10:28:08;26.80;87.60
37874;DHT22;23709;48.078;11.684;2023-07-24T10:30:43;27.00;87.10
37874;DHT22;23709;48.078;11.684;2023-07-24T10:33:20;27.10;86.80
37874;DHT22;23709;48.078;11.684;2023-07-24T10:35:54;27.10;85.60
37874;DHT22;23709;48.078;11.684;2023-07-24T10:38:35;27.10;84.00
37874;DHT22;23709;48.078;11.684;2023-07-24T10:41:11;27.30;84.10
37874;DHT22;23709;48.078;11.684;2023-07-24T10:43:48;27.50;82.20
37874;DHT22;23709;48.078;11.684;2023-07-24T10:46:20;27.60;80.80
37874;DHT22;23709;48.078;11.684;2023-07-24T10:48:53;27.50;79.60
37874;DHT22;23709;48.078;11.684;2023-07-24T10:51:25;27.20;80.60
37874;DHT22;23709;48.078;11.684;2023-07-24T10:53:57;27.10;81.70
37874;DHT22;23709;48.078;11.684;2023-07-24T10:56:30;27.20;82.00
37874;DHT22;23709;48.078;11.684;2023-07-24T10:59:03;27.10;79.40
37874;DHT22;23709;48.078;11.684;2023-07-24T11:01:36;27.20;81.90
37874;DHT22;23709;48.078;11.684;2023-07-24T11:04:09;27.30;83.10
37874;DHT22;23709;48.078;11.684;2023-07-24T11:06:44;27.40;82.40
37874;DHT22;23709;48.078;11.684;2023-07-24T11:09:16;27.60;82.80
37874;DHT22;23709;48.078;11.684;2023-07-24T11:11:51;27.90;83.90
37874;DHT22;23709;48.078;11.684;2023-07-24T11:14:23;28.40;82.50
37874;DHT22;23709;48.078;11.684;2023-07-24T11:16:56;28.80;79.60
37874;DHT22;23709;48.078;11.684;2023-07-24T11:19:28;29.20;77.00
37874;DHT22;23709;48.078;11.684;2023-07-24T11:22:00;29.40;77.00
37874;DHT22;23709;48.078;11.684;2023-07-24T11:24:43;29.50;75.20
37874;DHT22;23709;48.078;11.684;2023-07-24T11:27:16;29.70;77.50
37874;DHT22;23709;48.078;11.684;2023-07-24T11:29:49;29.80;75.50
37874;DHT22;23709;48.078;11.684;2023-07-24T11:32:22;29.60;76.30
37874;DHT22;23709;48.078;11.684;2023-07-24T11:34:55;29.40;75.80
37874;DHT22;23709;48.078;11.684;2023-07-24T11:37:27;29.10;74.70
37874;DHT22;23709;48.078;11.684;2023-07-24T11:40:02;29.20;74.20
37874;DHT22;23709;48.078;11.684;2023-07-24T11:42:37;29.20;74.30
37874;DHT22;23709;48.078;11.684;2023-07-24T11:45:10;29.40;74.60
37874;DHT22;23709;48.078;11.684;2023-07-24T11:47:43;29.30;76.60
37874;DHT22;23709;48.078;11.684;2023-07-24T11:50:17;29.40;75.50
37874;DHT22;23709;48.078;11.684;2023-07-24T11:52:51;29.50;74.10
37874;DHT22;23709;48.078;11.684;2023-07-24T11:55:32;29.40;73.80
37874;DHT22;23709;48.078;11.684;2023-07-24T11:58:05;29.60;75.00
37874;DHT22;23709;48.078;11.684;2023-07-24T12:00:37;29.60;75.00
37874;DHT22;23709;48.078;11.684;2023-07-24T12:03:09;29.30;73.90
37874;DHT22;23709;48.078;11.684;2023-07-24T12:05:43;29.10;74.30
37874;DHT22;23709;48.078;11.684;2023-07-24T12:08:35;28.80;74.10
37874;DHT22;23709;48.078;11.684;2023-07-24T12:11:17;28.60;74.40
37874;DHT22;23709;48.078;11.684;2023-07-24T12:13:52;28.50;75.10
37874;DHT22;23709;48.078;11.684;2023-07-24T12:16:25;28.50;75.00
37874;DHT22;23709;48.078;11.684;2023-07-24T12:18:58;28.60;75.30
37874;DHT22;23709;48.078;11.684;2023-07-24T12:21:31;28.80;76.50
37874;DHT22;23709;48.078;11.684;2023-07-24T12:24:04;28.70;76.10
37874;DHT22;23709;48.078;11.684;2023-07-24T12:26:36;28.40;77.20
37874;DHT22;23709;48.078;11.684;2023-07-24T12:29:08;28.10;79.40
37874;DHT22;23709;48.078;11.684;2023-07-24T12:31:41;27.60;78.40
37874;DHT22;23709;48.078;11.684;2023-07-24T12:34:14;27.30;77.40
37874;DHT22;23709;48.078;11.684;2023-07-24T12:36:46;26.80;78.20
37874;DHT22;23709;48.078;11.684;2023-07-24T12:39:19;26.40;80.40
37874;DHT22;23709;48.078;11.684;2023-07-24T12:41:52;25.90;89.30
37874;DHT22;23709;48.078;11.684;2023-07-24T12:44:24;25.10;94.20
37874;DHT22;23709;48.078;11.684;2023-07-24T12:46:58;24.30;97.60
37874;DHT22;23709;48.078;11.684;2023-07-24T12:49:30;23.80;99.90
37874;DHT22;23709;48.078;11.684;2023-07-24T12:52:03;23.50;99.90
37874;DHT22;23709;48.078;11.684;2023-07-24T12:54:35;23.10;99.90
37874;DHT22;23709;48.078;11.684;2023-07-24T12:57:29;23.00;99.90
37874;DHT22;23709;48.078;11.684;2023-07-24T13:00:02;22.80;99.90
37874;DHT22;23709;48.078;11.684;2023-07-24T13:02:35;22.60;99.90
37874;DHT22;23709;48.078;11.684;2023-07-24T13:05:08;22.60;99.90
37874;DHT22;23709;48.078;11.684;2023-07-24T13:07:41;22.50;99.90
37874;DHT22;23709;48.078;11.684;2023-07-24T13:10:13;22.30;99.90
37874;DHT22;23709;48.078;11.684;2023-07-24T13:12:45;22.20;99.90
37874;DHT22;23709;48.078;11.684;2023-07-24T13:15:18;22.00;99.90
37874;DHT22;23709;48.078;11.684;2023-07-24T13:17:50;21.80;99.90
37874;DHT22;23709;48.078;11.684;2023-07-24T13:20:24;21.60;99.90
37874;DHT22;23709;48.078;11.684;2023-07-24T13:22:56;21.60;99.90
37874;DHT22;23709;48.078;11.684;2023-07-24T13:25:29;21.50;99.90
37874;DHT22;23709;48.078;11.684;2023-07-24T13:28:01;21.40;99.90
37874;DHT22;23709;48.078;11.684;2023-07-24T13:30:33;21.40;99.90
37874;DHT22;23709;48.078;11.684;2023-07-24T13:33:06;21.30;99.90
37874;DHT22;23709;48.078;11.684;2023-07-24T13:35:39;21.30;99.90
37874;DHT22;23709;48.078;11.684;2023-07-24T13:38:11;21.40;99.90
37874;DHT22;23709;48.078;11.684;2023-07-24T13:40:44;21.20;99.90
37874;DHT22;23709;48.078;11.684;2023-07-24T13:43:16;21.30;99.90
37874;DHT22;23709;48.078;11.684;2023-07-24T13:45:49;21.60;99.90
37874;DHT22;23709;48.078;11.684;2023-07-24T13:48:22;21.80;99.90
37874;DHT22;23709;48.078;11.684;2023-07-24T13:50:55;22.10;99.90
37874;DHT22;23709;48.078;11.684;2023-07-24T13:53:27;21.80;99.90
37874;DHT22;23709;48.078;11.684;2023-07-24T13:55:59;21.80;99.90
37874;DHT22;23709;48.078;11.684;2023-07-24T13:58:32;22.00;99.90
37874;DHT22;23709;48.078;11.684;2023-07-24T14:01:04;22.00;99.90
37874;DHT22;23709;48.078;11.684;2023-07-24T14:03:41;22.20;99.90
37874;DHT22;23709;48.078;11.684;2023-07-24T14:06:14;22.60;99.90
37874;DHT22;23709;48.078;11.684;2023-07-24T14:08:46;22.90;99.90
37874;DHT22;23709;48.078;11.684;2023-07-24T14:11:19;23.10;99.90
37874;DHT22;23709;48.078;11.684;2023-07-24T14:13:51;23.30;99.90
37874;DHT22;23709;48.078;11.684;2023-07-24T14:16:23;23.30;99.90
37874;DHT22;23709;48.078;11.684;2023-07-24T14:18:55;23.50;99.90
37874;DHT22;23709;48.078;11.684;2023-07-24T14:21:28;23.30;99.90
37874;DHT22;23709;48.078;11.684;2023-07-24T14:24:01;23.40;99.90
37874;DHT22;23709;48.078;11.684;2023-07-24T14:26:33;23.70;99.90
37874;DHT22;23709;48.078;11.684;2023-07-24T14:29:08;23.80;99.90
37874;DHT22;23709;48.078;11.684;2023-07-24T14:31:40;24.10;99.90
37874;DHT22;23709;48.078;11.684;2023-07-24T14:34:12;24.20;99.90
37874;DHT22;23709;48.078;11.684;2023-07-24T14:36:45;24.50;99.90
37874;DHT22;23709;48.078;11.684;2023-07-24T14:39:17;24.70;99.90
37874;DHT22;23709;48.078;11.684;2023-07-24T14:41:49;25.00;99.90
37874;DHT22;23709;48.078;11.684;2023-07-24T14:44:22;25.00;99.90
37874;DHT22;23709;48.078;11.684;2023-07-24T14:46:54;24.80;99.90
37874;DHT22;23709;48.078;11.684;2023-07-24T14:49:27;24.80;99.90
37874;DHT22;23709;48.078;11.684;2023-07-24T14:52:00;24.80;99.90
37874;DHT22;23709;48.078;11.684;2023-07-24T14:54:32;24.90;99.90
37874;DHT22;23709;48.078;11.684;2023-07-24T14:57:09;24.90;99.90
37874;DHT22;23709;48.078;11.684;2023-07-24T14:59:55;24.80;99.90
37874;DHT22;23709;48.078;11.684;2023-07-24T15:02:28;24.60;99.90
37874;DHT22;23709;48.078;11.684;2023-07-24T15:05:01;24.70;99.90
37874;DHT22;23709;48.078;11.684;2023-07-24T15:07:33;24.60;99.90
37874;DHT22;23709;48.078;11.684;2023-07-24T15:10:06;24.90;99.90
37874;DHT22;23709;48.078;11.684;2023-07-24T15:12:38;25.00;99.90
37874;DHT22;23709;48.078;11.684;2023-07-24T15:15:11;25.10;99.90
37874;DHT22;23709;48.078;11.684;2023-07-24T15:17:43;25.40;99.90
37874;DHT22;23709;48.078;11.684;2023-07-24T15:20:15;25.80;99.90
37874;DHT22;23709;48.078;11.684;2023-07-24T15:22:48;26.10;98.90
37874;DHT22;23709;48.078;11.684;2023-07-24T15:25:21;26.10;98.80
37874;DHT22;23709;48.078;11.684;2023-07-24T15:27:53;26.30;97.50
37874;DHT22;23709;48.078;11.684;2023-07-24T15:30:25;26.10;99.60
37874;DHT22;23709;48.078;11.684;2023-07-24T15:32:58;26.00;99.50
37874;DHT22;23709;48.078;11.684;2023-07-24T15:35:30;26.40;98.60
37874;DHT22;23709;48.078;11.684;2023-07-24T15:38:02;26.70;97.80
37874;DHT22;23709;48.078;11.684;2023-07-24T15:40:37;27.00;96.50
37874;DHT22;23709;48.078;11.684;2023-07-24T15:43:11;27.20;94.60
37874;DHT22;23709;48.078;11.684;2023-07-24T15:45:44;26.80;94.60
37874;DHT22;23709;48.078;11.684;2023-07-24T15:48:16;26.40;94.90
37874;DHT22;23709;48.078;11.684;2023-07-24T15:50:57;26.10;95.30
37874;DHT22;23709;48.078;11.684;2023-07-24T15:53:30;26.00;95.30
37874;DHT22;23709;48.078;11.684;2023-07-24T15:56:03;25.60;96.40
37874;DHT22;23709;48.078;11.684;2023-07-24T15:58:38;25.50;95.70
37874;DHT22;23709;48.078;11.684;2023-07-24T16:01:10;25.30;96.30